Time;durP1;ratioP1;P1;durP2;ratioP2;P2;SDS_P1;SDS_P2;PMS_P1;PMS_P2;Temp;Humidity;BMP_temperature;BMP_pressure;BME280_temperature;BME280_humidity;BME280_pressure;Samples;Min_cycle;Max_cycle;Signal;HPM_P1;HPM_P2
2021/06/14 00:02:23;;;;;;;11.95;7.80;;;;;;;;;;5042621;28;20051;-74
2021/06/14 00:04:50;;;;;;;13.10;8.18;;;;;;;;;;5044077;28;20033;-74
2021/06/14 00:07:18;;;;;;;11.73;7.72;;;;;;;;;;5037262;28;20079;-74
2021/06/14 00:09:44;;;;;;;15.80;8.52;;;;;;;;;;5036911;28;20558;-74
2021/06/14 00:12:11;;;;;;;14.57;7.95;;;;;;;;;;5037349;28;20041;-74
2021/06/14 00:14:37;;;;;;;10.82;8.15;;;;;;;;;;5039651;28;20128;-74
2021/06/14 00:17:04;;;;;;;11.95;7.63;;;;;;;;;;5042204;28;20041;-74
2021/06/14 00:19:30;;;;;;;12.43;7.88;;;;;;;;;;5045965;28;20493;-74
2021/06/14 00:21:56;;;;;;;12.25;7.65;;;;;;;;;;5039116;28;20049;-74
2021/06/14 00:24:22;;;;;;;15.52;8.40;;;;;;;;;;5040520;28;20049;-74
2021/06/14 00:26:48;;;;;;;19.08;8.77;;;;;;;;;;5046026;28;20087;-74
2021/06/14 00:29:15;;;;;;;13.18;8.85;;;;;;;;;;5039182;28;20049;-74
2021/06/14 00:31:41;;;;;;;12.93;8.32;;;;;;;;;;5038302;28;20037;-74
2021/06/14 00:34:08;;;;;;;13.00;8.70;;;;;;;;;;5048595;28;20037;-74
2021/06/14 00:36:35;;;;;;;16.00;8.38;;;;;;;;;;5044281;28;20044;-74
2021/06/14 00:39:01;;;;;;;14.10;8.00;;;;;;;;;;5042719;28;20037;-74
2021/06/14 00:41:28;;;;;;;20.75;8.93;;;;;;;;;;5047651;28;20036;-75
2021/06/14 00:43:54;;;;;;;13.68;8.25;;;;;;;;;;5055146;28;20064;-74
2021/06/14 00:46:20;;;;;;;13.43;8.00;;;;;;;;;;5042573;28;20072;-74
2021/06/14 00:48:46;;;;;;;15.65;8.07;;;;;;;;;;5044892;28;20091;-74
2021/06/14 00:51:12;;;;;;;16.30;8.68;;;;;;;;;;5043177;28;20045;-74
2021/06/14 00:53:40;;;;;;;16.73;7.90;;;;;;;;;;5044146;28;20742;-74
2021/06/14 00:56:07;;;;;;;16.73;8.57;;;;;;;;;;5039840;28;20112;-74
2021/06/14 00:58:34;;;;;;;19.70;8.38;;;;;;;;;;5042786;28;20517;-74
2021/06/14 01:01:00;;;;;;;19.00;8.82;;;;;;;;;;5038476;28;20051;-74
2021/06/14 01:03:26;;;;;;;15.45;8.32;;;;;;;;;;5079123;28;21869;-74
2021/06/14 01:05:56;;;;;;;13.95;8.18;;;;;;;;;;5049257;28;20036;-74
2021/06/14 01:08:22;;;;;;;15.43;7.30;;;;;;;;;;5039593;28;20144;-74
2021/06/14 01:10:50;;;;;;;11.38;8.02;;;;;;;;;;5042578;28;20460;-74
2021/06/14 01:13:22;;;;;;;14.07;7.97;;;;;;;;;;5052472;28;20072;-74
2021/06/14 01:16:05;;;;;;;13.32;7.82;;;;;;;;;;5037047;28;20508;-74
2021/06/14 01:18:41;;;;;;;15.03;8.37;;;;;;;;;;5042205;28;20075;-74
2021/06/14 01:21:12;;;;;;;18.95;7.55;;;;;;;;;;5039658;28;20315;-74
2021/06/14 01:23:48;;;;;;;17.10;7.55;;;;;;;;;;5042995;28;20047;-74
2021/06/14 01:26:16;;;;;;;14.30;7.18;;;;;;;;;;5043925;28;20135;-74
2021/06/14 01:28:42;;;;;;;16.20;7.43;;;;;;;;;;5044134;28;20041;-74
2021/06/14 01:31:09;;;;;;;11.60;6.88;;;;;;;;;;5039338;28;20056;-74
2021/06/14 01:33:36;;;;;;;17.05;7.72;;;;;;;;;;5038132;28;20481;-74
2021/06/14 01:36:05;;;;;;;16.40;7.72;;;;;;;;;;5042184;28;20203;-74
2021/06/14 01:38:32;;;;;;;14.73;7.60;;;;;;;;;;5045205;28;20223;-74
2021/06/14 01:41:01;;;;;;;13.23;7.07;;;;;;;;;;5040355;28;20037;-74
2021/06/14 01:43:28;;;;;;;14.45;7.40;;;;;;;;;;5045536;28;20163;-75
2021/06/14 01:45:56;;;;;;;16.65;7.07;;;;;;;;;;5038496;28;20137;-74
2021/06/14 01:48:23;;;;;;;14.30;8.77;;;;;;;;;;5039282;28;20051;-74
2021/06/14 01:54:12;;;;;;;14.05;6.93;;;;;;;;;;5046832;28;20481;-75
2021/06/14 01:56:41;;;;;;;16.00;7.38;;;;;;;;;;5043412;28;20048;-75
2021/06/14 01:59:08;;;;;;;15.10;7.68;;;;;;;;;;5045391;28;20404;-74
2021/06/14 02:01:37;;;;;;;16.20;8.07;;;;;;;;;;5042043;28;20045;-75
2021/06/14 02:04:04;;;;;;;16.85;7.72;;;;;;;;;;5039323;28;20497;-74
2021/06/14 02:06:33;;;;;;;12.15;7.05;;;;;;;;;;5046405;28;20049;-74
2021/06/14 02:09:01;;;;;;;12.43;6.55;;;;;;;;;;5047817;28;20087;-75
2021/06/14 02:11:27;;;;;;;16.90;7.15;;;;;;;;;;5044348;28;20397;-75
2021/06/14 02:13:54;;;;;;;9.90;6.78;;;;;;;;;;5054694;28;20128;-74
2021/06/14 02:16:20;;;;;;;14.68;7.15;;;;;;;;;;5035660;28;20481;-74
2021/06/14 02:18:46;;;;;;;12.90;7.30;;;;;;;;;;5051460;28;20052;-74
2021/06/14 02:21:13;;;;;;;18.38;7.68;;;;;;;;;;5040136;28;20427;-74
2021/06/14 02:23:40;;;;;;;13.43;8.32;;;;;;;;;;5039635;28;20054;-74
2021/06/14 02:26:06;;;;;;;17.27;8.38;;;;;;;;;;5043480;28;20056;-74
2021/06/14 02:28:32;;;;;;;12.02;7.20;;;;;;;;;;5044790;28;20077;-74
2021/06/14 02:30:58;;;;;;;13.15;7.18;;;;;;;;;;5044575;28;20064;-74
2021/06/14 02:33:25;;;;;;;14.25;7.60;;;;;;;;;;5038244;28;20036;-75
2021/06/14 02:35:52;;;;;;;15.75;7.63;;;;;;;;;;5038454;28;20064;-74
2021/06/14 02:38:18;;;;;;;11.05;6.40;;;;;;;;;;5056858;28;20041;-74
2021/06/14 02:40:45;;;;;;;20.55;7.72;;;;;;;;;;5044565;28;20049;-74
2021/06/14 02:43:11;;;;;;;13.10;7.07;;;;;;;;;;5038545;28;20433;-74
2021/06/14 02:45:38;;;;;;;12.98;7.90;;;;;;;;;;5057467;28;20056;-74
2021/06/14 02:48:06;;;;;;;14.20;7.05;;;;;;;;;;5041237;28;20041;-74
2021/06/14 02:50:33;;;;;;;14.75;7.13;;;;;;;;;;5039759;28;20037;-74
2021/06/14 02:53:00;;;;;;;16.33;7.80;;;;;;;;;;5055448;28;20049;-74
2021/06/14 02:55:29;;;;;;;15.18;6.90;;;;;;;;;;5050593;28;20047;-74
2021/06/14 02:57:56;;;;;;;14.70;7.22;;;;;;;;;;5054054;28;20060;-74
2021/06/14 03:00:25;;;;;;;12.88;7.05;;;;;;;;;;5043428;28;20448;-74
2021/06/14 03:02:54;;;;;;;14.05;7.53;;;;;;;;;;5039949;28;20056;-74
2021/06/14 03:05:20;;;;;;;14.75;7.72;;;;;;;;;;5039139;28;20057;-74
2021/06/14 03:07:47;;;;;;;17.90;7.20;;;;;;;;;;5045072;28;20036;-74
2021/06/14 03:10:14;;;;;;;14.63;7.15;;;;;;;;;;5041374;28;20133;-74
2021/06/14 03:12:40;;;;;;;13.10;7.20;;;;;;;;;;5055368;28;20044;-74
2021/06/14 03:15:07;;;;;;;13.00;7.82;;;;;;;;;;5041583;28;20106;-74
2021/06/14 03:17:34;;;;;;;15.75;7.78;;;;;;;;;;5040864;28;20040;-74
2021/06/14 03:20:00;;;;;;;16.15;7.82;;;;;;;;;;5041340;28;20122;-74
2021/06/14 03:22:27;;;;;;;14.93;7.82;;;;;;;;;;5042777;28;20034;-74
2021/06/14 03:24:53;;;;;;;13.52;8.13;;;;;;;;;;5044119;28;20102;-74
2021/06/14 03:27:20;;;;;;;16.45;7.53;;;;;;;;;;5041022;28;20055;-74
2021/06/14 03:29:49;;;;;;;22.63;8.65;;;;;;;;;;5045673;28;20124;-74
2021/06/14 03:32:16;;;;;;;14.05;7.90;;;;;;;;;;5054594;28;20127;-74
2021/06/14 03:34:42;;;;;;;16.40;8.80;;;;;;;;;;5041619;28;20212;-74
2021/06/14 03:37:09;;;;;;;17.90;7.80;;;;;;;;;;5037729;28;20048;-74
2021/06/14 03:39:35;;;;;;;13.30;8.98;;;;;;;;;;5044123;28;20431;-74
2021/06/14 03:42:02;;;;;;;18.00;8.82;;;;;;;;;;5037646;28;20052;-74
2021/06/14 03:44:28;;;;;;;14.48;7.80;;;;;;;;;;5040973;28;20041;-74
2021/06/14 03:46:54;;;;;;;17.30;7.78;;;;;;;;;;5055317;28;20033;-74
2021/06/14 03:49:21;;;;;;;20.88;8.57;;;;;;;;;;5044148;28;20045;-74
2021/06/14 03:51:47;;;;;;;17.70;8.52;;;;;;;;;;5045791;28;20037;-74
2021/06/14 03:54:13;;;;;;;19.27;9.05;;;;;;;;;;5039974;28;20080;-74
2021/06/14 03:56:39;;;;;;;17.75;9.05;;;;;;;;;;5035781;28;20375;-74
2021/06/14 03:59:06;;;;;;;15.93;9.30;;;;;;;;;;5042001;28;20124;-74
2021/06/14 04:01:33;;;;;;;23.63;9.05;;;;;;;;;;5048272;28;20055;-74
2021/06/14 04:06:26;;;;;;;19.98;9.50;;;;;;;;;;5041926;28;20055;-74
2021/06/14 04:08:53;;;;;;;15.80;9.40;;;;;;;;;;5042621;28;20043;-74
2021/06/14 04:11:19;;;;;;;22.33;9.75;;;;;;;;;;5042274;28;20045;-74
2021/06/14 04:13:49;;;;;;;21.80;10.70;;;;;;;;;;5040452;28;20525;-74
2021/06/14 04:16:16;;;;;;;14.27;9.27;;;;;;;;;;5047099;28;20099;-74
2021/06/14 04:18:42;;;;;;;16.15;10.00;;;;;;;;;;5043629;28;20076;-74
2021/06/14 04:21:08;;;;;;;18.25;9.80;;;;;;;;;;5043123;28;20056;-74
2021/06/14 04:23:35;;;;;;;21.00;11.18;;;;;;;;;;5041210;28;20045;-74
2021/06/14 04:26:01;;;;;;;17.67;10.13;;;;;;;;;;5046732;28;20045;-74
2021/06/14 04:28:27;;;;;;;18.73;10.35;;;;;;;;;;5040773;28;20042;-74
2021/06/14 04:30:53;;;;;;;15.13;10.00;;;;;;;;;;5044799;28;20059;-74
2021/06/14 04:33:20;;;;;;;15.27;10.05;;;;;;;;;;5042491;28;20048;-74
2021/06/14 04:35:46;;;;;;;19.73;10.25;;;;;;;;;;5043191;28;20444;-74
2021/06/14 04:38:13;;;;;;;17.55;10.15;;;;;;;;;;5043841;28;20128;-74
2021/06/14 04:40:39;;;;;;;20.77;10.90;;;;;;;;;;5040758;28;20162;-74
2021/06/14 04:43:05;;;;;;;20.10;10.45;;;;;;;;;;5044064;28;20082;-74
2021/06/14 04:45:31;;;;;;;21.05;9.75;;;;;;;;;;5042317;28;20477;-74
2021/06/14 04:47:58;;;;;;;18.00;10.60;;;;;;;;;;5041384;28;20053;-74
2021/06/14 04:50:24;;;;;;;20.63;10.65;;;;;;;;;;5047039;28;20044;-74
2021/06/14 04:52:50;;;;;;;18.27;10.32;;;;;;;;;;5059378;28;20033;-74
2021/06/14 04:55:16;;;;;;;19.58;10.45;;;;;;;;;;5042897;28;20481;-74
2021/06/14 04:57:42;;;;;;;18.23;9.88;;;;;;;;;;5047189;28;20044;-74
2021/06/14 05:00:09;;;;;;;16.90;9.63;;;;;;;;;;5047189;28;20053;-74
2021/06/14 05:02:36;;;;;;;15.55;9.95;;;;;;;;;;5053341;28;20085;-74
2021/06/14 05:05:03;;;;;;;18.90;10.27;;;;;;;;;;5058264;28;20071;-73
2021/06/14 05:07:29;;;;;;;20.95;10.20;;;;;;;;;;5054679;28;20048;-74
2021/06/14 05:09:57;;;;;;;19.10;10.38;;;;;;;;;;5075215;28;20045;-74
2021/06/14 05:12:23;;;;;;;19.55;9.65;;;;;;;;;;5046469;28;20067;-74
2021/06/14 05:14:50;;;;;;;22.65;10.70;;;;;;;;;;5052759;28;20098;-75
2021/06/14 05:17:17;;;;;;;13.52;8.98;;;;;;;;;;5082171;28;20048;-76
2021/06/14 05:19:45;;;;;;;19.17;10.35;;;;;;;;;;5060231;28;20452;-77
2021/06/14 05:22:11;;;;;;;17.63;10.52;;;;;;;;;;5063498;28;20047;-75
2021/06/14 05:24:38;;;;;;;16.38;9.93;;;;;;;;;;5056802;28;20041;-75
2021/06/14 05:27:04;;;;;;;19.08;9.90;;;;;;;;;;5063590;28;20120;-77
2021/06/14 05:29:31;;;;;;;15.45;10.13;;;;;;;;;;5067105;28;20052;-74
2021/06/14 05:31:57;;;;;;;14.95;10.20;;;;;;;;;;5063517;28;20106;-78
2021/06/14 05:34:24;;;;;;;16.58;9.60;;;;;;;;;;5062860;28;20409;-74
2021/06/14 05:36:51;;;;;;;17.52;9.32;;;;;;;;;;5063232;28;20044;-74
2021/06/14 05:39:17;;;;;;;15.10;9.30;;;;;;;;;;5057546;28;20412;-74
2021/06/14 05:41:43;;;;;;;15.98;9.07;;;;;;;;;;5059605;28;20052;-75
2021/06/14 05:44:10;;;;;;;20.15;9.43;;;;;;;;;;5047463;28;20072;-75
2021/06/14 05:46:36;;;;;;;19.65;9.10;;;;;;;;;;5041221;28;20076;-75
2021/06/14 05:49:03;;;;;;;21.55;9.48;;;;;;;;;;5034945;28;20044;-76
2021/06/14 05:51:30;;;;;;;18.95;10.63;;;;;;;;;;5035608;28;20061;-77
2021/06/14 05:53:56;;;;;;;16.33;10.35;;;;;;;;;;5031810;28;20054;-76
2021/06/14 05:56:23;;;;;;;13.95;9.40;;;;;;;;;;5033705;28;20076;-76
2021/06/14 05:58:49;;;;;;;16.75;9.45;;;;;;;;;;5034217;28;20618;-76
2021/06/14 06:01:15;;;;;;;20.45;9.43;;;;;;;;;;5034647;28;20171;-76
2021/06/14 06:03:42;;;;;;;22.45;9.57;;;;;;;;;;5048296;28;20045;-76
2021/06/14 06:06:08;;;;;;;16.95;8.98;;;;;;;;;;5035017;28;20050;-76
2021/06/14 06:08:35;;;;;;;16.02;9.75;;;;;;;;;;5033305;28;20113;-76
2021/06/14 06:11:02;;;;;;;16.02;9.63;;;;;;;;;;5034679;28;20104;-76
2021/06/14 06:13:28;;;;;;;15.73;9.15;;;;;;;;;;5033043;28;20049;-76
2021/06/14 06:15:54;;;;;;;18.20;9.30;;;;;;;;;;5033675;28;20092;-76
2021/06/14 06:18:20;;;;;;;18.63;9.23;;;;;;;;;;5033544;28;20049;-76
2021/06/14 06:20:47;;;;;;;17.85;8.57;;;;;;;;;;5033081;28;20140;-74
2021/06/14 06:23:13;;;;;;;17.92;8.57;;;;;;;;;;5049622;28;20559;-74
2021/06/14 06:25:39;;;;;;;14.07;8.13;;;;;;;;;;5040916;28;20056;-74
2021/06/14 06:28:05;;;;;;;14.05;7.97;;;;;;;;;;5050788;28;20049;-74
2021/06/14 06:30:36;;;;;;;19.85;8.85;;;;;;;;;;5050365;28;20061;-74
2021/06/14 06:33:03;;;;;;;18.92;7.68;;;;;;;;;;5050571;28;20041;-74
2021/06/14 06:35:29;;;;;;;12.77;7.55;;;;;;;;;;5050401;28;20049;-74
2021/06/14 06:37:55;;;;;;;13.75;8.23;;;;;;;;;;5050495;28;20045;-74
2021/06/14 06:40:22;;;;;;;13.43;7.50;;;;;;;;;;5082174;28;20112;-74
2021/06/14 06:42:48;;;;;;;13.10;7.20;;;;;;;;;;5050737;28;20067;-74
2021/06/14 06:45:15;;;;;;;16.25;8.50;;;;;;;;;;5050017;28;20055;-74
2021/06/14 06:47:41;;;;;;;12.57;7.05;;;;;;;;;;5048912;28;20395;-74
2021/06/14 06:50:08;;;;;;;12.70;7.07;;;;;;;;;;5050502;28;20052;-74
2021/06/14 06:52:36;;;;;;;17.80;6.95;;;;;;;;;;5049719;28;20456;-74
2021/06/14 06:55:04;;;;;;;16.00;7.00;;;;;;;;;;5050259;28;20045;-74
2021/06/14 06:57:30;;;;;;;17.70;6.72;;;;;;;;;;5050221;28;20433;-74
2021/06/14 06:59:56;;;;;;;14.63;6.05;;;;;;;;;;5081722;28;20370;-74
2021/06/14 07:02:22;;;;;;;19.30;7.53;;;;;;;;;;5049976;28;20067;-74
2021/06/14 07:04:49;;;;;;;11.63;5.35;;;;;;;;;;5050501;28;20048;-74
2021/06/14 07:07:15;;;;;;;16.15;6.03;;;;;;;;;;5081906;28;20053;-74
2021/06/14 07:09:41;;;;;;;14.30;5.70;;;;;;;;;;5050323;28;20140;-74
2021/06/14 07:12:08;;;;;;;14.15;6.03;;;;;;;;;;5050205;28;20049;-74
2021/06/14 07:14:35;;;;;;;14.15;6.53;;;;;;;;;;5048850;28;20048;-74
2021/06/14 07:17:01;;;;;;;16.75;6.55;;;;;;;;;;5049986;28;20152;-74
2021/06/14 07:19:28;;;;;;;12.93;7.38;;;;;;;;;;5049544;28;20158;-74
2021/06/14 07:21:55;;;;;;;13.63;6.10;;;;;;;;;;5049640;28;20114;-81
2021/06/14 07:24:21;;;;;;;14.18;6.30;;;;;;;;;;5081590;28;20053;-70
2021/06/14 07:26:47;;;;;;;14.23;6.18;;;;;;;;;;5049567;28;20145;-79
2021/06/14 07:29:14;;;;;;;17.00;5.75;;;;;;;;;;5049702;28;20079;-72
2021/06/14 07:31:40;;;;;;;16.00;5.85;;;;;;;;;;5049652;28;20041;-71
2021/06/14 07:34:08;;;;;;;11.23;4.80;;;;;;;;;;5049246;28;20449;-71
2021/06/14 07:36:34;;;;;;;13.27;5.68;;;;;;;;;;5045639;28;20056;-71
2021/06/14 07:39:00;;;;;;;12.88;6.07;;;;;;;;;;5046876;28;20045;-71
2021/06/14 07:41:27;;;;;;;12.55;5.32;;;;;;;;;;5046970;28;20155;-71
2021/06/14 07:43:53;;;;;;;11.30;5.25;;;;;;;;;;5047024;28;20089;-71
2021/06/14 07:46:19;;;;;;;14.27;5.72;;;;;;;;;;5047302;28;20102;-71
2021/06/14 07:48:46;;;;;;;11.73;5.15;;;;;;;;;;5044494;28;20120;-71
2021/06/14 07:51:13;;;;;;;12.32;5.00;;;;;;;;;;5047450;28;20037;-71
2021/06/14 07:53:39;;;;;;;14.15;5.45;;;;;;;;;;5044944;28;20132;-71
2021/06/14 07:56:08;;;;;;;16.17;6.00;;;;;;;;;;5046670;28;20044;-71
2021/06/14 07:58:34;;;;;;;11.57;5.25;;;;;;;;;;5046202;28;20041;-71
2021/06/14 08:01:02;;;;;;;10.73;5.32;;;;;;;;;;5045515;28;20480;-71
2021/06/14 08:03:29;;;;;;;12.35;5.03;;;;;;;;;;5046751;28;20120;-71
2021/06/14 08:05:56;;;;;;;13.18;5.20;;;;;;;;;;5044669;28;20071;-71
2021/06/14 08:08:22;;;;;;;13.35;5.32;;;;;;;;;;5047260;28;20098;-71
2021/06/14 08:10:50;;;;;;;14.20;5.95;;;;;;;;;;5043963;28;20052;-71
2021/06/14 08:13:17;;;;;;;11.68;4.72;;;;;;;;;;5047025;28;20073;-71
2021/06/14 08:15:44;;;;;;;12.73;4.55;;;;;;;;;;5044127;28;20088;-74
2021/06/14 08:21:03;;;;;;;18.67;5.80;;;;;;;;;;5046645;28;20051;-74
2021/06/14 08:26:14;;;;;;;13.45;5.72;;;;;;;;;;5046684;28;20051;-76
2021/06/14 08:28:40;;;;;;;12.93;5.07;;;;;;;;;;5049579;28;20184;-76
2021/06/14 08:31:07;;;;;;;9.32;4.55;;;;;;;;;;5080814;28;20063;-76
2021/06/14 08:33:33;;;;;;;14.15;5.65;;;;;;;;;;5050114;28;20071;-76
2021/06/14 08:35:59;;;;;;;10.30;4.18;;;;;;;;;;5053028;28;20092;-76
2021/06/14 08:38:26;;;;;;;14.13;5.10;;;;;;;;;;5052206;28;20061;-76
2021/06/14 08:40:52;;;;;;;11.80;4.75;;;;;;;;;;5052938;28;20043;-76
2021/06/14 08:43:20;;;;;;;11.32;4.40;;;;;;;;;;5053016;28;20045;-77
2021/06/14 08:45:51;;;;;;;12.10;4.80;;;;;;;;;;5052038;28;20052;-77
2021/06/14 08:48:18;;;;;;;11.90;4.50;;;;;;;;;;5052834;28;20060;-76
2021/06/14 08:50:44;;;;;;;12.52;4.63;;;;;;;;;;5052574;28;20105;-76
2021/06/14 08:53:12;;;;;;;8.55;4.20;;;;;;;;;;5052221;28;20067;-76
2021/06/14 08:55:38;;;;;;;11.45;4.93;;;;;;;;;;5052446;28;20092;-76
2021/06/14 08:58:05;;;;;;;10.15;4.53;;;;;;;;;;5051983;28;20033;-76
2021/06/14 09:00:33;;;;;;;16.90;5.45;;;;;;;;;;5052204;28;20049;-76
2021/06/14 09:02:59;;;;;;;15.70;4.93;;;;;;;;;;5052571;28;20186;-77
2021/06/14 09:05:26;;;;;;;23.08;6.20;;;;;;;;;;5051963;28;20094;-76
2021/06/14 09:07:55;;;;;;;11.20;5.00;;;;;;;;;;5051966;28;20493;-77
2021/06/14 09:10:23;;;;;;;12.50;5.22;;;;;;;;;;5052477;28;20052;-76
2021/06/14 09:12:49;;;;;;;16.27;5.38;;;;;;;;;;5050599;28;20142;-76
2021/06/14 09:15:17;;;;;;;15.00;5.80;;;;;;;;;;5052083;28;20045;-76
2021/06/14 09:17:55;;;;;;;10.05;4.45;;;;;;;;;;5052024;28;20113;-76
2021/06/14 09:20:22;;;;;;;13.30;5.55;;;;;;;;;;5052016;28;20063;-76
2021/06/14 09:22:48;;;;;;;13.85;5.22;;;;;;;;;;5051943;28;20041;-76
2021/06/14 09:25:16;;;;;;;13.65;4.97;;;;;;;;;;5050857;28;20080;-77
2021/06/14 09:27:44;;;;;;;12.48;6.03;;;;;;;;;;5050391;28;20052;-77
2021/06/14 09:30:12;;;;;;;11.23;4.57;;;;;;;;;;5051683;28;20107;-76
2021/06/14 09:32:49;;;;;;;11.20;5.60;;;;;;;;;;5051950;28;20037;-77
2021/06/14 09:35:16;;;;;;;13.27;5.30;;;;;;;;;;5051243;28;20053;-78
2021/06/14 09:37:42;;;;;;;17.63;5.88;;;;;;;;;;5052283;28;20041;-78
2021/06/14 09:40:09;;;;;;;12.25;4.55;;;;;;;;;;5051145;28;20049;-79
2021/06/14 09:42:39;;;;;;;13.73;4.82;;;;;;;;;;5043507;28;20051;-76
2021/06/14 09:45:07;;;;;;;11.48;4.97;;;;;;;;;;5036519;28;20129;-80
2021/06/14 09:47:34;;;;;;;13.32;4.88;;;;;;;;;;5039408;28;20044;-79
2021/06/14 09:50:07;;;;;;;13.48;5.20;;;;;;;;;;5057313;28;20045;-79
2021/06/14 09:52:33;;;;;;;15.48;5.72;;;;;;;;;;5040440;28;20072;-79
2021/06/14 09:55:08;;;;;;;14.82;5.22;;;;;;;;;;5035876;28;20085;-79
2021/06/14 09:57:34;;;;;;;13.32;5.20;;;;;;;;;;5036948;28;20132;-80
2021/06/14 10:00:06;;;;;;;13.00;5.97;;;;;;;;;;5039937;28;20124;-80
2021/06/14 10:02:35;;;;;;;14.45;6.40;;;;;;;;;;5040429;28;20040;-80
2021/06/14 10:05:01;;;;;;;19.13;6.80;;;;;;;;;;5068525;28;20048;-80
2021/06/14 10:07:27;;;;;;;12.50;6.30;;;;;;;;;;5036592;28;20049;-80
2021/06/14 10:09:54;;;;;;;18.13;6.47;;;;;;;;;;5035404;28;20116;-79
2021/06/14 10:12:26;;;;;;;13.73;6.28;;;;;;;;;;5040059;28;20064;-79
2021/06/14 10:14:53;;;;;;;16.92;6.65;;;;;;;;;;5045280;28;20041;-79
2021/06/14 10:17:31;;;;;;;11.82;6.05;;;;;;;;;;5045159;28;20455;-79
2021/06/14 10:20:18;;;;;;;20.30;6.15;;;;;;;;;;5040272;28;20167;-79
2021/06/14 10:22:45;;;;;;;12.32;7.07;;;;;;;;;;5058058;28;20044;-80
2021/06/14 10:25:12;;;;;;;12.00;5.22;;;;;;;;;;5058595;28;20041;-79
2021/06/14 10:27:39;;;;;;;14.07;7.47;;;;;;;;;;5038844;28;20042;-79
2021/06/14 10:30:06;;;;;;;14.57;6.78;;;;;;;;;;5043517;28;20041;-79
2021/06/14 10:32:35;;;;;;;14.52;6.30;;;;;;;;;;5040374;28;20053;-78
2021/06/14 10:35:02;;;;;;;14.48;6.65;;;;;;;;;;5046345;28;20087;-79
2021/06/14 10:37:28;;;;;;;17.13;7.55;;;;;;;;;;5035905;28;20431;-79
2021/06/14 10:39:55;;;;;;;13.07;7.22;;;;;;;;;;5036954;28;20045;-79
2021/06/14 10:42:22;;;;;;;17.83;7.70;;;;;;;;;;5057075;28;20618;-79
2021/06/14 10:44:48;;;;;;;13.43;7.20;;;;;;;;;;5042794;28;20041;-79
2021/06/14 10:47:15;;;;;;;17.15;7.63;;;;;;;;;;5043796;28;20041;-80
2021/06/14 10:49:41;;;;;;;13.23;7.60;;;;;;;;;;5036672;28;20044;-80
2021/06/14 10:52:08;;;;;;;13.73;7.18;;;;;;;;;;5053059;28;20049;-79
2021/06/14 10:54:42;;;;;;;17.15;7.60;;;;;;;;;;5034449;28;20378;-78
2021/06/14 10:57:10;;;;;;;14.05;8.15;;;;;;;;;;5036976;28;20546;-79
2021/06/14 10:59:37;;;;;;;12.95;7.80;;;;;;;;;;5045553;28;20055;-79
2021/06/14 11:02:05;;;;;;;13.68;7.40;;;;;;;;;;5039499;28;20048;-79
2021/06/14 11:04:32;;;;;;;15.15;8.63;;;;;;;;;;5058765;28;20041;-79
2021/06/14 11:06:59;;;;;;;17.45;7.40;;;;;;;;;;5035954;28;20040;-79
2021/06/14 11:09:37;;;;;;;14.15;6.80;;;;;;;;;;5042138;28;20496;-80
2021/06/14 11:12:04;;;;;;;15.43;6.53;;;;;;;;;;5042768;28;20032;-80
2021/06/14 11:14:38;;;;;;;19.50;8.40;;;;;;;;;;5040210;28;20033;-80
2021/06/14 11:17:18;;;;;;;12.63;6.97;;;;;;;;;;5019701;28;20049;-80
2021/06/14 11:19:47;;;;;;;13.43;6.72;;;;;;;;;;5052442;28;20173;-80
2021/06/14 11:22:14;;;;;;;11.32;5.30;;;;;;;;;;5051688;28;20405;-80
2021/06/14 11:24:41;;;;;;;10.07;5.72;;;;;;;;;;5046386;28;20045;-80
2021/06/14 11:27:09;;;;;;;11.88;5.60;;;;;;;;;;5049259;28;20037;-80
2021/06/14 11:29:46;;;;;;;10.85;5.97;;;;;;;;;;5050323;28;20104;-80
2021/06/14 11:32:18;;;;;;;10.13;5.22;;;;;;;;;;5036871;28;20049;-80
2021/06/14 11:34:46;;;;;;;11.15;5.30;;;;;;;;;;5061013;28;20063;-80
2021/06/14 11:37:13;;;;;;;10.55;5.60;;;;;;;;;;5043753;28;20052;-85
2021/06/14 11:39:39;;;;;;;13.73;5.00;;;;;;;;;;5062695;28;20538;-71
2021/06/14 11:42:13;;;;;;;12.43;5.82;;;;;;;;;;5046354;28;20758;-72
2021/06/14 11:44:49;;;;;;;14.18;6.05;;;;;;;;;;5039835;28;20159;-71
2021/06/14 11:47:17;;;;;;;13.13;5.30;;;;;;;;;;5038588;28;20048;-71
2021/06/14 11:49:45;;;;;;;16.40;5.68;;;;;;;;;;5042442;28;20115;-71
2021/06/14 11:52:19;;;;;;;11.15;5.28;;;;;;;;;;5042614;28;20167;-71
2021/06/14 11:54:46;;;;;;;9.50;5.05;;;;;;;;;;5041999;28;20130;-71
2021/06/14 11:57:12;;;;;;;11.20;4.82;;;;;;;;;;5044584;28;20062;-71
2021/06/14 11:59:39;;;;;;;9.80;5.07;;;;;;;;;;5039825;28;20136;-71
2021/06/14 12:02:17;;;;;;;9.32;4.07;;;;;;;;;;5035480;28;20100;-72
2021/06/14 12:04:44;;;;;;;10.35;4.45;;;;;;;;;;5039034;28;20132;-71
2021/06/14 12:07:10;;;;;;;8.65;4.47;;;;;;;;;;5040986;28;20168;-71
2021/06/14 12:09:42;;;;;;;9.18;3.30;;;;;;;;;;5034627;28;20132;-71
2021/06/14 12:12:09;;;;;;;9.55;3.60;;;;;;;;;;5047265;28;20068;-71
2021/06/14 12:14:35;;;;;;;6.65;2.80;;;;;;;;;;5056173;28;20090;-71
2021/06/14 12:17:03;;;;;;;8.65;2.78;;;;;;;;;;5060997;28;20044;-71
2021/06/14 12:19:35;;;;;;;7.68;3.25;;;;;;;;;;5058986;28;20412;-71
2021/06/14 12:22:06;;;;;;;25.55;4.80;;;;;;;;;;5057156;28;20085;-71
2021/06/14 12:24:34;;;;;;;6.70;2.47;;;;;;;;;;5052827;28;20404;-71
2021/06/14 12:27:02;;;;;;;11.07;4.28;;;;;;;;;;5050485;28;20045;-71
2021/06/14 12:29:29;;;;;;;7.53;3.72;;;;;;;;;;5041440;28;20047;-71
2021/06/14 12:32:04;;;;;;;7.72;3.33;;;;;;;;;;5040159;28;20044;-71
2021/06/14 12:34:30;;;;;;;9.35;3.22;;;;;;;;;;5044970;28;20075;-71
2021/06/14 12:36:57;;;;;;;8.77;3.85;;;;;;;;;;5044044;28;20041;-71
2021/06/14 12:39:24;;;;;;;9.52;4.50;;;;;;;;;;5047628;28;20499;-71
2021/06/14 12:41:50;;;;;;;11.15;4.88;;;;;;;;;;5055797;28;20110;-72
2021/06/14 12:44:16;;;;;;;7.95;4.55;;;;;;;;;;5066333;28;20044;-73
2021/06/14 12:46:43;;;;;;;10.25;4.60;;;;;;;;;;5039455;28;20171;-72
2021/06/14 12:49:09;;;;;;;11.57;4.68;;;;;;;;;;5031195;28;20137;-71
2021/06/14 12:51:38;;;;;;;10.13;4.38;;;;;;;;;;5022354;28;20660;-71
2021/06/14 12:54:05;;;;;;;11.68;4.30;;;;;;;;;;5040114;28;20515;-71
2021/06/14 12:56:31;;;;;;;10.68;4.88;;;;;;;;;;5043914;28;20038;-72
2021/06/14 12:58:58;;;;;;;9.23;4.78;;;;;;;;;;5040340;28;20735;-71
2021/06/14 13:01:24;;;;;;;9.02;4.82;;;;;;;;;;5075129;28;20485;-71
2021/06/14 13:03:50;;;;;;;9.45;5.65;;;;;;;;;;5044233;28;20524;-72
2021/06/14 13:06:16;;;;;;;10.38;6.85;;;;;;;;;;5063210;28;20052;-72
2021/06/14 13:08:45;;;;;;;12.48;6.22;;;;;;;;;;5069525;28;20445;-72
2021/06/14 13:11:12;;;;;;;10.73;5.68;;;;;;;;;;5056002;28;20159;-72
2021/06/14 13:13:46;;;;;;;9.73;4.80;;;;;;;;;;5048427;28;20068;-72
2021/06/14 13:16:15;;;;;;;7.63;5.25;;;;;;;;;;5043667;28;20180;-72
2021/06/14 13:18:42;;;;;;;9.85;5.45;;;;;;;;;;5050839;28;20055;-72
2021/06/14 13:21:10;;;;;;;12.55;6.03;;;;;;;;;;5039486;28;20105;-71
2021/06/14 13:23:48;;;;;;;9.27;4.85;;;;;;;;;;5040921;28;20120;-72
2021/06/14 13:26:15;;;;;;;10.90;4.85;;;;;;;;;;5049913;28;20120;-72
2021/06/14 13:28:42;;;;;;;10.48;5.38;;;;;;;;;;5063082;28;20060;-71
2021/06/14 13:31:15;;;;;;;14.88;5.07;;;;;;;;;;5083208;28;20041;-71
2021/06/14 13:33:45;;;;;;;13.00;4.70;;;;;;;;;;5060236;28;20077;-71
2021/06/14 13:36:13;;;;;;;14.50;5.50;;;;;;;;;;5050517;28;20041;-71
2021/06/14 13:38:40;;;;;;;9.80;5.20;;;;;;;;;;5043491;28;20037;-73
2021/06/14 13:41:09;;;;;;;10.02;5.18;;;;;;;;;;5036240;28;20132;-70
2021/06/14 13:43:37;;;;;;;10.60;5.47;;;;;;;;;;5045077;28;20142;-70
2021/06/14 13:46:04;;;;;;;10.35;4.65;;;;;;;;;;5043721;28;20067;-70
2021/06/14 13:48:41;;;;;;;11.77;5.05;;;;;;;;;;5041553;28;20077;-70
2021/06/14 13:51:11;;;;;;;10.77;5.18;;;;;;;;;;5036628;28;20477;-70
2021/06/14 13:53:45;;;;;;;7.88;4.65;;;;;;;;;;5041133;28;20072;-70
2021/06/14 13:56:13;;;;;;;9.55;4.32;;;;;;;;;;5035877;28;20191;-70
2021/06/14 13:58:41;;;;;;;11.07;4.70;;;;;;;;;;5045349;28;20433;-70
2021/06/14 14:01:09;;;;;;;10.75;4.35;;;;;;;;;;5037313;28;20052;-69
2021/06/14 14:03:35;;;;;;;8.73;4.10;;;;;;;;;;5036781;28;20047;-70
2021/06/14 14:06:01;;;;;;;8.88;4.20;;;;;;;;;;5050435;28;20045;-69
2021/06/14 14:08:28;;;;;;;9.32;4.20;;;;;;;;;;5045094;28;20044;-70
2021/06/14 14:10:54;;;;;;;7.80;3.85;;;;;;;;;;5037404;28;20455;-69
2021/06/14 14:13:22;;;;;;;8.48;4.25;;;;;;;;;;5047907;28;20485;-69
2021/06/14 14:15:49;;;;;;;8.68;4.15;;;;;;;;;;5031374;28;20073;-70
2021/06/14 14:18:16;;;;;;;12.02;3.78;;;;;;;;;;5036880;28;20508;-70
2021/06/14 14:20:44;;;;;;;6.53;4.10;;;;;;;;;;5042139;28;20064;-69
2021/06/14 14:23:10;;;;;;;8.07;3.72;;;;;;;;;;5042689;28;20094;-70
2021/06/14 14:25:37;;;;;;;10.88;4.70;;;;;;;;;;5065313;28;20040;-70
2021/06/14 14:28:04;;;;;;;7.75;3.55;;;;;;;;;;5063596;28;20040;-70
2021/06/14 14:30:36;;;;;;;8.48;3.65;;;;;;;;;;5076540;28;20064;-70
2021/06/14 14:33:03;;;;;;;11.60;3.88;;;;;;;;;;5063389;28;20040;-70
2021/06/14 14:35:36;;;;;;;8.80;3.28;;;;;;;;;;5060982;28;20132;-70
2021/06/14 14:38:03;;;;;;;6.68;3.28;;;;;;;;;;5058190;28;20070;-69
2021/06/14 14:40:33;;;;;;;8.40;3.42;;;;;;;;;;5061881;28;20099;-70
2021/06/14 14:43:00;;;;;;;8.60;3.58;;;;;;;;;;5065701;28;20468;-70
2021/06/14 14:45:27;;;;;;;6.45;2.92;;;;;;;;;;5063809;28;20495;-70